sensor_id;sensor_type;location;lat;lon;timestamp;pressure;altitude;pressure_sealevel;temperature;humidity
63115;BME280;49208;50.874;6.466;2022-08-20T05:03:02;100509.91;;;17.58;100.00
63115;BME280;49208;50.874;6.466;2022-08-20T05:05:28;100509.16;;;17.56;100.00
63115;BME280;49208;50.874;6.466;2022-08-20T05:07:55;100505.69;;;17.54;100.00
63115;BME280;49208;50.874;6.466;2022-08-20T05:10:22;100512.00;;;17.53;100.00
63115;BME280;49208;50.874;6.466;2022-08-20T05:12:48;100507.59;;;17.52;100.00
63115;BME280;49208;50.874;6.466;2022-08-20T05:15:13;100510.38;;;17.51;100.00
63115;BME280;49208;50.874;6.466;2022-08-20T05:17:40;100508.47;;;17.53;100.00
63115;BME280;49208;50.874;6.466;2022-08-20T05:20:08;100515.47;;;17.55;100.00
63115;BME280;49208;50.874;6.466;2022-08-20T05:22:34;100516.91;;;17.61;100.00
63115;BME280;49208;50.874;6.466;2022-08-20T05:24:59;100516.63;;;17.66;100.00
63115;BME280;49208;50.874;6.466;2022-08-20T05:27:26;100526.34;;;17.68;100.00
63115;BME280;49208;50.874;6.466;2022-08-20T05:29:53;100524.41;;;17.70;99.83
63115;BME280;49208;50.874;6.466;2022-08-20T05:32:20;100524.50;;;17.69;99.36
63115;BME280;49208;50.874;6.466;2022-08-20T05:34:46;100521.06;;;17.67;99.42
63115;BME280;49208;50.874;6.466;2022-08-20T05:37:12;100530.19;;;17.64;98.94
63115;BME280;49208;50.874;6.466;2022-08-20T05:39:37;100532.13;;;17.62;98.77
63115;BME280;49208;50.874;6.466;2022-08-20T05:42:03;100530.38;;;17.61;99.39
63115;BME280;49208;50.874;6.466;2022-08-20T05:44:28;100537.28;;;17.65;99.46
63115;BME280;49208;50.874;6.466;2022-08-20T05:46:54;100535.06;;;17.72;99.10
63115;BME280;49208;50.874;6.466;2022-08-20T05:49:20;100536.44;;;17.79;98.52
63115;BME280;49208;50.874;6.466;2022-08-20T05:51:47;100543.66;;;17.93;98.13
63115;BME280;49208;50.874;6.466;2022-08-20T05:54:13;100542.06;;;18.03;96.74
63115;BME280;49208;50.874;6.466;2022-08-20T05:56:39;100539.94;;;18.08;95.87
63115;BME280;49208;50.874;6.466;2022-08-20T05:59:06;100545.03;;;18.13;95.81
63115;BME280;49208;50.874;6.466;2022-08-20T06:01:34;100551.22;;;18.28;95.73
63115;BME280;49208;50.874;6.466;2022-08-20T06:03:59;100541.72;;;18.49;94.62
63115;BME280;49208;50.874;6.466;2022-08-20T06:06:44;100546.09;;;18.77;92.58
63115;BME280;49208;50.874;6.466;2022-08-20T06:09:09;100548.44;;;18.96;90.92
63115;BME280;49208;50.874;6.466;2022-08-20T06:11:35;100546.38;;;19.00;89.30
63115;BME280;49208;50.874;6.466;2022-08-20T06:14:00;100545.63;;;18.85;88.36
63115;BME280;49208;50.874;6.466;2022-08-20T06:16:26;100552.91;;;18.70;88.92
63115;BME280;49208;50.874;6.466;2022-08-20T06:18:53;100547.56;;;18.56;89.36
63115;BME280;49208;50.874;6.466;2022-08-20T06:21:18;100549.56;;;18.40;89.79
63115;BME280;49208;50.874;6.466;2022-08-20T06:23:44;100549.44;;;18.28;90.38
63115;BME280;49208;50.874;6.466;2022-08-20T06:26:10;100552.63;;;18.21;90.98
63115;BME280;49208;50.874;6.466;2022-08-20T06:28:35;100552.03;;;18.15;92.12
63115;BME280;49208;50.874;6.466;2022-08-20T06:31:00;100561.97;;;18.15;93.40
63115;BME280;49208;50.874;6.466;2022-08-20T06:33:26;100555.63;;;18.16;92.89
63115;BME280;49208;50.874;6.466;2022-08-20T06:35:51;100556.25;;;18.20;92.84
63115;BME280;49208;50.874;6.466;2022-08-20T06:38:17;100554.91;;;18.27;92.83
63115;BME280;49208;50.874;6.466;2022-08-20T06:40:42;100556.34;;;18.32;92.82
63115;BME280;49208;50.874;6.466;2022-08-20T06:43:08;100553.97;;;18.41;92.52
63115;BME280;49208;50.874;6.466;2022-08-20T06:45:35;100553.28;;;18.51;92.33
63115;BME280;49208;50.874;6.466;2022-08-20T06:48:08;100546.50;;;18.58;91.51
63115;BME280;49208;50.874;6.466;2022-08-20T06:50:37;100543.47;;;18.63;90.54
63115;BME280;49208;50.874;6.466;2022-08-20T06:53:08;100540.59;;;18.66;90.32
63115;BME280;49208;50.874;6.466;2022-08-20T06:55:35;100538.00;;;18.77;89.69
63115;BME280;49208;50.874;6.466;2022-08-20T06:58:06;100536.81;;;19.22;88.84
63115;BME280;49208;50.874;6.466;2022-08-20T07:00:34;100541.78;;;20.51;83.75
63115;BME280;49208;50.874;6.466;2022-08-20T07:03:00;100542.81;;;21.77;75.85
63115;BME280;49208;50.874;6.466;2022-08-20T07:05:32;100532.56;;;23.00;71.72
63115;BME280;49208;50.874;6.466;2022-08-20T07:07:58;100539.28;;;24.29;64.88
63115;BME280;49208;50.874;6.466;2022-08-20T07:10:26;100542.13;;;25.45;60.76
63115;BME280;49208;50.874;6.466;2022-08-20T07:12:51;100546.00;;;26.71;57.17
63115;BME280;49208;50.874;6.466;2022-08-20T07:15:20;100544.09;;;27.59;54.56
63115;BME280;49208;50.874;6.466;2022-08-20T07:17:55;100549.50;;;28.28;52.83
63115;BME280;49208;50.874;6.466;2022-08-20T07:20:20;100553.22;;;29.02;50.19
63115;BME280;49208;50.874;6.466;2022-08-20T07:22:46;100549.78;;;29.25;48.21
63115;BME280;49208;50.874;6.466;2022-08-20T07:25:15;100548.22;;;28.57;48.62
63115;BME280;49208;50.874;6.466;2022-08-20T07:27:42;100546.22;;;27.39;50.42
63115;BME280;49208;50.874;6.466;2022-08-20T07:30:11;100545.72;;;26.28;52.69
63115;BME280;49208;50.874;6.466;2022-08-20T07:32:55;100545.75;;;24.96;56.95
63115;BME280;49208;50.874;6.466;2022-08-20T07:35:21;100549.41;;;24.08;59.83
63115;BME280;49208;50.874;6.466;2022-08-20T07:37:49;100549.00;;;23.41;62.66
63115;BME280;49208;50.874;6.466;2022-08-20T07:40:22;100561.41;;;22.80;65.13
63115;BME280;49208;50.874;6.466;2022-08-20T07:42:47;100562.19;;;22.39;65.76
63115;BME280;49208;50.874;6.466;2022-08-20T07:45:15;100571.66;;;21.90;66.70
63115;BME280;49208;50.874;6.466;2022-08-20T07:47:42;100575.34;;;21.55;68.69
63115;BME280;49208;50.874;6.466;2022-08-20T07:50:09;100572.66;;;21.19;70.67
63115;BME280;49208;50.874;6.466;2022-08-20T07:52:36;100571.38;;;20.90;71.48
63115;BME280;49208;50.874;6.466;2022-08-20T07:55:13;100575.97;;;20.76;73.36
63115;BME280;49208;50.874;6.466;2022-08-20T07:57:40;100565.00;;;20.67;73.36
63115;BME280;49208;50.874;6.466;2022-08-20T08:00:07;100575.91;;;20.89;74.33
63115;BME280;49208;50.874;6.466;2022-08-20T08:02:34;100576.00;;;21.23;71.28
63115;BME280;49208;50.874;6.466;2022-08-20T08:05:00;100583.22;;;21.47;69.85
63115;BME280;49208;50.874;6.466;2022-08-20T08:07:26;100579.91;;;21.66;69.65
63115;BME280;49208;50.874;6.466;2022-08-20T08:09:53;100580.13;;;21.74;69.63
63115;BME280;49208;50.874;6.466;2022-08-20T08:12:19;100581.50;;;21.79;69.77
63115;BME280;49208;50.874;6.466;2022-08-20T08:14:47;100580.75;;;22.00;69.65
63115;BME280;49208;50.874;6.466;2022-08-20T08:17:13;100581.34;;;22.26;68.58
63115;BME280;49208;50.874;6.466;2022-08-20T08:19:45;100584.09;;;22.58;67.67
63115;BME280;49208;50.874;6.466;2022-08-20T08:22:14;100577.94;;;22.56;66.08
63115;BME280;49208;50.874;6.466;2022-08-20T08:24:41;100575.63;;;22.52;65.42
63115;BME280;49208;50.874;6.466;2022-08-20T08:27:08;100585.28;;;22.33;66.61
63115;BME280;49208;50.874;6.466;2022-08-20T08:29:34;100589.69;;;22.46;67.42
63115;BME280;49208;50.874;6.466;2022-08-20T08:32:02;100589.81;;;22.44;66.76
63115;BME280;49208;50.874;6.466;2022-08-20T08:34:28;100586.72;;;22.49;67.00
63115;BME280;49208;50.874;6.466;2022-08-20T08:36:55;100587.75;;;22.25;67.01
63115;BME280;49208;50.874;6.466;2022-08-20T08:39:23;100591.44;;;22.24;67.27
63115;BME280;49208;50.874;6.466;2022-08-20T08:41:50;100593.81;;;22.29;66.84
63115;BME280;49208;50.874;6.466;2022-08-20T08:44:20;100591.91;;;22.40;67.70
63115;BME280;49208;50.874;6.466;2022-08-20T08:46:52;100592.75;;;22.52;66.60
63115;BME280;49208;50.874;6.466;2022-08-20T08:49:25;100596.69;;;22.48;65.78
63115;BME280;49208;50.874;6.466;2022-08-20T08:52:17;100605.59;;;22.39;66.09
63115;BME280;49208;50.874;6.466;2022-08-20T08:54:46;100613.03;;;22.26;66.77
63115;BME280;49208;50.874;6.466;2022-08-20T08:57:13;100614.75;;;22.27;67.16
63115;BME280;49208;50.874;6.466;2022-08-20T08:59:39;100613.13;;;22.24;67.29
63115;BME280;49208;50.874;6.466;2022-08-20T09:02:06;100606.97;;;22.33;67.35
63115;BME280;49208;50.874;6.466;2022-08-20T09:04:35;100608.75;;;22.55;67.33
63115;BME280;49208;50.874;6.466;2022-08-20T09:07:03;100614.72;;;22.82;66.97
63115;BME280;49208;50.874;6.466;2022-08-20T09:09:36;100617.00;;;22.97;65.59
63115;BME280;49208;50.874;6.466;2022-08-20T09:12:09;100619.63;;;22.88;64.98
63115;BME280;49208;50.874;6.466;2022-08-20T09:14:36;100624.41;;;22.63;66.01
63115;BME280;49208;50.874;6.466;2022-08-20T09:17:02;100622.19;;;22.57;66.59
63115;BME280;49208;50.874;6.466;2022-08-20T09:19:27;100615.41;;;22.63;66.11
63115;BME280;49208;50.874;6.466;2022-08-20T09:21:53;100618.13;;;22.63;65.98
63115;BME280;49208;50.874;6.466;2022-08-20T09:24:18;100616.03;;;22.66;65.29
63115;BME280;49208;50.874;6.466;2022-08-20T09:26:44;100613.59;;;22.84;65.79
63115;BME280;49208;50.874;6.466;2022-08-20T09:29:09;100620.94;;;23.05;65.54
63115;BME280;49208;50.874;6.466;2022-08-20T09:31:35;100630.97;;;23.25;64.33
63115;BME280;49208;50.874;6.466;2022-08-20T09:34:00;100628.69;;;23.30;63.84
63115;BME280;49208;50.874;6.466;2022-08-20T09:36:26;100620.38;;;23.43;62.96
63115;BME280;49208;50.874;6.466;2022-08-20T09:38:52;100627.25;;;23.47;62.47
63115;BME280;49208;50.874;6.466;2022-08-20T09:41:17;100631.22;;;23.64;62.78
63115;BME280;49208;50.874;6.466;2022-08-20T09:43:43;100630.06;;;23.88;62.69
63115;BME280;49208;50.874;6.466;2022-08-20T09:46:08;100633.44;;;24.01;61.36
63115;BME280;49208;50.874;6.466;2022-08-20T09:48:33;100631.28;;;24.05;61.22
63115;BME280;49208;50.874;6.466;2022-08-20T09:50:59;100638.69;;;23.93;62.07
63115;BME280;49208;50.874;6.466;2022-08-20T09:53:25;100634.47;;;23.79;61.54
63115;BME280;49208;50.874;6.466;2022-08-20T09:55:52;100633.22;;;23.72;62.26
63115;BME280;49208;50.874;6.466;2022-08-20T09:58:49;100638.34;;;23.86;62.69
63115;BME280;49208;50.874;6.466;2022-08-20T10:01:17;100631.97;;;23.76;62.00
63115;BME280;49208;50.874;6.466;2022-08-20T10:03:44;100637.09;;;23.69;61.79
63115;BME280;49208;50.874;6.466;2022-08-20T10:06:13;100633.84;;;23.54;62.87
63115;BME280;49208;50.874;6.466;2022-08-20T10:08:39;100643.19;;;23.40;61.92
63115;BME280;49208;50.874;6.466;2022-08-20T10:11:05;100631.59;;;23.17;62.09
63115;BME280;49208;50.874;6.466;2022-08-20T10:13:30;100641.06;;;22.91;63.32
63115;BME280;49208;50.874;6.466;2022-08-20T10:15:56;100639.94;;;22.72;64.04
63115;BME280;49208;50.874;6.466;2022-08-20T10:18:21;100647.50;;;22.46;63.66
63115;BME280;49208;50.874;6.466;2022-08-20T10:20:47;100646.69;;;22.23;65.06
63115;BME280;49208;50.874;6.466;2022-08-20T10:23:12;100647.28;;;22.15;65.61
63115;BME280;49208;50.874;6.466;2022-08-20T10:25:38;100643.09;;;22.00;66.00
63115;BME280;49208;50.874;6.466;2022-08-20T10:28:03;100645.31;;;22.06;66.10
63115;BME280;49208;50.874;6.466;2022-08-20T10:30:29;100646.53;;;22.13;65.80
63115;BME280;49208;50.874;6.466;2022-08-20T10:32:55;100644.59;;;22.27;65.76
63115;BME280;49208;50.874;6.466;2022-08-20T10:35:20;100645.41;;;22.38;65.31
63115;BME280;49208;50.874;6.466;2022-08-20T10:37:46;100646.97;;;22.64;65.12
63115;BME280;49208;50.874;6.466;2022-08-20T10:40:11;100650.84;;;22.82;63.07
63115;BME280;49208;50.874;6.466;2022-08-20T10:42:39;100648.47;;;22.89;62.71
63115;BME280;49208;50.874;6.466;2022-08-20T10:45:05;100650.81;;;23.05;63.01
63115;BME280;49208;50.874;6.466;2022-08-20T10:47:31;100646.31;;;23.15;62.47
63115;BME280;49208;50.874;6.466;2022-08-20T10:49:59;100649.25;;;23.23;61.95
63115;BME280;49208;50.874;6.466;2022-08-20T10:52:25;100645.19;;;23.38;61.83
63115;BME280;49208;50.874;6.466;2022-08-20T10:54:51;100641.56;;;23.49;60.95
63115;BME280;49208;50.874;6.466;2022-08-20T10:57:19;100643.69;;;23.46;61.34
63115;BME280;49208;50.874;6.466;2022-08-20T10:59:47;100649.00;;;23.47;62.26
63115;BME280;49208;50.874;6.466;2022-08-20T11:02:13;100656.88;;;23.29;61.72
63115;BME280;49208;50.874;6.466;2022-08-20T11:04:39;100653.34;;;23.17;61.40
63115;BME280;49208;50.874;6.466;2022-08-20T11:07:15;100654.16;;;23.29;61.59
63115;BME280;49208;50.874;6.466;2022-08-20T11:09:42;100652.44;;;23.49;59.10
63115;BME280;49208;50.874;6.466;2022-08-20T11:12:08;100652.16;;;23.52;59.34
63115;BME280;49208;50.874;6.466;2022-08-20T11:14:33;100645.66;;;23.44;60.47
63115;BME280;49208;50.874;6.466;2022-08-20T11:16:59;100655.00;;;23.30;60.38
63115;BME280;49208;50.874;6.466;2022-08-20T11:19:25;100648.44;;;23.32;61.53
63115;BME280;49208;50.874;6.466;2022-08-20T11:21:50;100654.25;;;23.70;60.76
63115;BME280;49208;50.874;6.466;2022-08-20T11:24:16;100651.81;;;24.18;59.93
63115;BME280;49208;50.874;6.466;2022-08-20T11:26:45;100654.59;;;24.48;56.69
63115;BME280;49208;50.874;6.466;2022-08-20T11:29:10;100651.94;;;24.67;56.50
63115;BME280;49208;50.874;6.466;2022-08-20T11:31:36;100645.94;;;24.64;56.40
63115;BME280;49208;50.874;6.466;2022-08-20T11:34:01;100652.38;;;24.63;56.81
63115;BME280;49208;50.874;6.466;2022-08-20T11:36:27;100661.56;;;24.62;55.70
63115;BME280;49208;50.874;6.466;2022-08-20T11:38:52;100658.00;;;24.80;54.87
63115;BME280;49208;50.874;6.466;2022-08-20T11:41:17;100657.16;;;24.80;53.26
63115;BME280;49208;50.874;6.466;2022-08-20T11:43:43;100661.84;;;24.88;54.67
63115;BME280;49208;50.874;6.466;2022-08-20T11:46:08;100660.44;;;25.13;53.17
63115;BME280;49208;50.874;6.466;2022-08-20T11:48:33;100665.16;;;25.40;52.99
63115;BME280;49208;50.874;6.466;2022-08-20T11:50:59;100667.75;;;25.41;51.93
63115;BME280;49208;50.874;6.466;2022-08-20T11:53:24;100663.88;;;25.44;51.19
63115;BME280;49208;50.874;6.466;2022-08-20T11:55:50;100656.41;;;25.56;51.81
63115;BME280;49208;50.874;6.466;2022-08-20T11:58:15;100650.81;;;25.57;50.93
63115;BME280;49208;50.874;6.466;2022-08-20T12:00:41;100649.06;;;25.56;50.41
63115;BME280;49208;50.874;6.466;2022-08-20T12:03:06;100652.56;;;25.39;50.96
63115;BME280;49208;50.874;6.466;2022-08-20T12:05:32;100657.00;;;25.50;51.46
63115;BME280;49208;50.874;6.466;2022-08-20T12:08:01;100645.75;;;25.63;50.49
63115;BME280;49208;50.874;6.466;2022-08-20T12:10:27;100646.06;;;25.59;50.13
63115;BME280;49208;50.874;6.466;2022-08-20T12:12:53;100645.94;;;25.61;50.43
63115;BME280;49208;50.874;6.466;2022-08-20T12:15:19;100644.78;;;25.44;51.22
63115;BME280;49208;50.874;6.466;2022-08-20T12:17:45;100646.22;;;25.19;51.56
63115;BME280;49208;50.874;6.466;2022-08-20T12:20:12;100646.97;;;25.21;51.71
63115;BME280;49208;50.874;6.466;2022-08-20T12:22:38;100652.56;;;25.39;51.46
63115;BME280;49208;50.874;6.466;2022-08-20T12:25:05;100645.63;;;25.54;47.90
63115;BME280;49208;50.874;6.466;2022-08-20T12:27:32;100640.16;;;25.64;48.11
63115;BME280;49208;50.874;6.466;2022-08-20T12:30:00;100648.66;;;25.61;48.59
63115;BME280;49208;50.874;6.466;2022-08-20T12:32:28;100638.72;;;25.70;49.01
63115;BME280;49208;50.874;6.466;2022-08-20T12:34:55;100650.75;;;25.77;48.86
63115;BME280;49208;50.874;6.466;2022-08-20T12:37:22;100649.69;;;25.88;47.32
63115;BME280;49208;50.874;6.466;2022-08-20T12:39:54;100647.69;;;25.99;47.68
63115;BME280;49208;50.874;6.466;2022-08-20T12:42:20;100645.34;;;25.57;46.61
63115;BME280;49208;50.874;6.466;2022-08-20T12:44:46;100647.69;;;25.33;46.74
63115;BME280;49208;50.874;6.466;2022-08-20T12:47:21;100634.47;;;25.38;47.12
63115;BME280;49208;50.874;6.466;2022-08-20T12:49:58;100640.66;;;25.40;47.78
63115;BME280;49208;50.874;6.466;2022-08-20T12:52:28;100640.94;;;25.37;46.60
63115;BME280;49208;50.874;6.466;2022-08-20T12:54:54;100638.81;;;25.40;46.09
63115;BME280;49208;50.874;6.466;2022-08-20T12:57:33;100634.72;;;25.54;46.29
63115;BME280;49208;50.874;6.466;2022-08-20T13:00:03;100628.22;;;25.75;44.40
63115;BME280;49208;50.874;6.466;2022-08-20T13:02:29;100632.50;;;25.87;44.00
63115;BME280;49208;50.874;6.466;2022-08-20T13:04:55;100629.34;;;25.92;43.96
63115;BME280;49208;50.874;6.466;2022-08-20T13:07:20;100624.44;;;25.86;44.60
63115;BME280;49208;50.874;6.466;2022-08-20T13:09:45;100621.88;;;25.94;45.16
63115;BME280;49208;50.874;6.466;2022-08-20T13:12:11;100618.97;;;26.05;44.27
63115;BME280;49208;50.874;6.466;2022-08-20T13:14:38;100617.09;;;26.06;44.47
63115;BME280;49208;50.874;6.466;2022-08-20T13:17:04;100621.44;;;25.89;44.02
63115;BME280;49208;50.874;6.466;2022-08-20T13:19:32;100618.28;;;25.84;44.39
63115;BME280;49208;50.874;6.466;2022-08-20T13:21:59;100628.34;;;25.83;42.39
63115;BME280;49208;50.874;6.466;2022-08-20T13:24:25;100622.03;;;25.83;41.23
63115;BME280;49208;50.874;6.466;2022-08-20T13:26:51;100618.22;;;25.66;42.59
63115;BME280;49208;50.874;6.466;2022-08-20T13:29:17;100615.97;;;25.51;43.52
63115;BME280;49208;50.874;6.466;2022-08-20T13:31:43;100616.41;;;25.47;43.88
63115;BME280;49208;50.874;6.466;2022-08-20T13:34:08;100606.75;;;25.52;42.78
63115;BME280;49208;50.874;6.466;2022-08-20T13:36:35;100614.66;;;25.55;44.13
63115;BME280;49208;50.874;6.466;2022-08-20T13:39:04;100610.31;;;25.63;43.48
63115;BME280;49208;50.874;6.466;2022-08-20T13:41:32;100608.59;;;25.71;43.08
63115;BME280;49208;50.874;6.466;2022-08-20T13:43:58;100609.31;;;25.73;44.06
63115;BME280;49208;50.874;6.466;2022-08-20T13:46:23;100602.13;;;25.72;43.21
63115;BME280;49208;50.874;6.466;2022-08-20T13:48:49;100593.09;;;25.72;41.79
63115;BME280;49208;50.874;6.466;2022-08-20T13:51:14;100603.84;;;25.73;41.74
63115;BME280;49208;50.874;6.466;2022-08-20T13:53:39;100592.06;;;25.73;42.17
63115;BME280;49208;50.874;6.466;2022-08-20T13:56:05;100603.16;;;25.71;42.29
63115;BME280;49208;50.874;6.466;2022-08-20T13:58:30;100604.00;;;25.72;41.40
63115;BME280;49208;50.874;6.466;2022-08-20T14:00:56;100593.81;;;25.64;41.07
63115;BME280;49208;50.874;6.466;2022-08-20T14:03:21;100590.66;;;25.69;41.18
63115;BME280;49208;50.874;6.466;2022-08-20T14:05:47;100602.25;;;25.71;40.91
63115;BME280;49208;50.874;6.466;2022-08-20T14:08:18;100585.06;;;25.70;40.65
63115;BME280;49208;50.874;6.466;2022-08-20T14:10:45;100599.72;;;25.59;40.80
63115;BME280;49208;50.874;6.466;2022-08-20T14:13:18;100593.25;;;25.60;41.67
63115;BME280;49208;50.874;6.466;2022-08-20T14:15:44;100589.56;;;25.42;41.29
63115;BME280;49208;50.874;6.466;2022-08-20T14:18:10;100595.75;;;25.15;42.47
63115;BME280;49208;50.874;6.466;2022-08-20T14:20:36;100597.38;;;25.08;43.29
63115;BME280;49208;50.874;6.466;2022-08-20T14:23:02;100594.63;;;25.08;43.27
63115;BME280;49208;50.874;6.466;2022-08-20T14:25:29;100597.50;;;25.16;42.57
63115;BME280;49208;50.874;6.466;2022-08-20T14:27:55;100588.91;;;25.20;41.54
63115;BME280;49208;50.874;6.466;2022-08-20T14:30:24;100592.22;;;25.24;41.85
63115;BME280;49208;50.874;6.466;2022-08-20T14:32:50;100592.34;;;25.23;40.21
63115;BME280;49208;50.874;6.466;2022-08-20T14:35:15;100585.91;;;25.24;39.84
63115;BME280;49208;50.874;6.466;2022-08-20T14:37:44;100597.81;;;25.23;41.71
63115;BME280;49208;50.874;6.466;2022-08-20T14:40:12;100589.75;;;25.21;41.87
63115;BME280;49208;50.874;6.466;2022-08-20T14:42:39;100591.06;;;25.27;42.21
63115;BME280;49208;50.874;6.466;2022-08-20T14:45:06;100596.78;;;25.33;41.65
63115;BME280;49208;50.874;6.466;2022-08-20T14:47:34;100593.34;;;25.31;41.65
63115;BME280;49208;50.874;6.466;2022-08-20T14:50:04;100594.63;;;25.27;41.80
63115;BME280;49208;50.874;6.466;2022-08-20T14:52:31;100593.78;;;25.27;41.17
63115;BME280;49208;50.874;6.466;2022-08-20T14:55:00;100594.81;;;25.26;41.56
63115;BME280;49208;50.874;6.466;2022-08-20T14:57:26;100594.09;;;25.24;41.51
63115;BME280;49208;50.874;6.466;2022-08-20T14:59:52;100593.06;;;25.05;41.80
63115;BME280;49208;50.874;6.466;2022-08-20T15:02:17;100596.09;;;24.92;42.27
63115;BME280;49208;50.874;6.466;2022-08-20T15:04:43;100596.66;;;24.96;42.15
63115;BME280;49208;50.874;6.466;2022-08-20T15:07:37;100588.91;;;25.01;41.41
63115;BME280;49208;50.874;6.466;2022-08-20T15:10:08;100591.06;;;24.97;41.24
63115;BME280;49208;50.874;6.466;2022-08-20T15:12:34;100586.19;;;24.91;41.73
63115;BME280;49208;50.874;6.466;2022-08-20T15:15:02;100583.91;;;24.87;41.20
63115;BME280;49208;50.874;6.466;2022-08-20T15:17:28;100582.19;;;24.86;42.70
63115;BME280;49208;50.874;6.466;2022-08-20T15:19:54;100585.47;;;24.89;42.71
63115;BME280;49208;50.874;6.466;2022-08-20T15:22:21;100589.31;;;24.96;41.79
63115;BME280;49208;50.874;6.466;2022-08-20T15:24:47;100585.34;;;24.91;41.77
63115;BME280;49208;50.874;6.466;2022-08-20T15:27:21;100576.16;;;24.92;41.51
63115;BME280;49208;50.874;6.466;2022-08-20T15:29:47;100578.16;;;24.90;40.86
63115;BME280;49208;50.874;6.466;2022-08-20T15:32:14;100575.88;;;24.85;41.59
63115;BME280;49208;50.874;6.466;2022-08-20T15:34:40;100571.16;;;24.87;41.56
63115;BME280;49208;50.874;6.466;2022-08-20T15:37:14;100572.00;;;24.88;41.90
63115;BME280;49208;50.874;6.466;2022-08-20T15:39:41;100574.00;;;24.86;42.09
63115;BME280;49208;50.874;6.466;2022-08-20T15:42:07;100574.16;;;24.84;41.84
63115;BME280;49208;50.874;6.466;2022-08-20T15:44:33;100575.75;;;24.87;41.79
63115;BME280;49208;50.874;6.466;2022-08-20T15:47:19;100573.47;;;24.82;41.97
63115;BME280;49208;50.874;6.466;2022-08-20T15:49:46;100567.44;;;24.78;41.83
63115;BME280;49208;50.874;6.466;2022-08-20T15:52:13;100568.28;;;24.69;42.39
63115;BME280;49208;50.874;6.466;2022-08-20T15:54:39;100566.00;;;24.74;41.71
63115;BME280;49208;50.874;6.466;2022-08-20T16:10:53;100567.84;;;24.54;42.92
63115;BME280;49208;50.874;6.466;2022-08-20T16:16:03;100560.38;;;24.47;43.73
63115;BME280;49208;50.874;6.466;2022-08-20T16:18:34;100566.81;;;24.46;43.36
63115;BME280;49208;50.874;6.466;2022-08-20T16:21:01;100559.78;;;24.43;43.19
63115;BME280;49208;50.874;6.466;2022-08-20T16:23:31;100556.63;;;24.38;43.33
63115;BME280;49208;50.874;6.466;2022-08-20T16:29:08;100556.63;;;24.28;43.81
63115;BME280;49208;50.874;6.466;2022-08-20T16:31:43;100557.75;;;24.26;43.53
63115;BME280;49208;50.874;6.466;2022-08-20T16:34:27;100560.03;;;24.20;44.37
63115;BME280;49208;50.874;6.466;2022-08-20T16:39:27;100553.59;;;24.12;44.95
63115;BME280;49208;50.874;6.466;2022-08-20T16:41:54;100556.56;;;24.09;44.07
63115;BME280;49208;50.874;6.466;2022-08-20T16:44:35;100557.13;;;23.93;44.21
63115;BME280;49208;50.874;6.466;2022-08-20T16:47:17;100557.00;;;23.73;45.75
63115;BME280;49208;50.874;6.466;2022-08-20T16:49:48;100549.03;;;23.51;46.86
63115;BME280;49208;50.874;6.466;2022-08-20T16:52:16;100556.22;;;23.31;46.86
63115;BME280;49208;50.874;6.466;2022-08-20T16:54:43;100558.44;;;23.16;47.56
63115;BME280;49208;50.874;6.466;2022-08-20T16:57:09;100556.78;;;23.04;48.57
63115;BME280;49208;50.874;6.466;2022-08-20T17:00:37;100555.41;;;22.98;48.34
63115;BME280;49208;50.874;6.466;2022-08-20T17:05:15;100553.19;;;23.03;47.52
63115;BME280;49208;50.874;6.466;2022-08-20T17:07:47;100552.19;;;23.04;48.08
63115;BME280;49208;50.874;6.466;2022-08-20T17:10:25;100544.06;;;23.04;48.18
63115;BME280;49208;50.874;6.466;2022-08-20T17:15:27;100553.34;;;23.02;48.33
63115;BME280;49208;50.874;6.466;2022-08-20T17:17:53;100550.22;;;22.95;48.78
63115;BME280;49208;50.874;6.466;2022-08-20T17:20:21;100550.03;;;22.87;49.32
63115;BME280;49208;50.874;6.466;2022-08-20T17:22:51;100544.41;;;22.78;49.16
63115;BME280;49208;50.874;6.466;2022-08-20T17:25:21;100549.78;;;22.69;49.85
63115;BME280;49208;50.874;6.466;2022-08-20T17:27:52;100544.25;;;22.59;50.29
63115;BME280;49208;50.874;6.466;2022-08-20T17:30:34;100551.19;;;22.52;50.89
63115;BME280;49208;50.874;6.466;2022-08-20T17:33:16;100554.28;;;22.47;49.87
63115;BME280;49208;50.874;6.466;2022-08-20T17:35:57;100559.25;;;22.42;50.82
63115;BME280;49208;50.874;6.466;2022-08-20T17:41:02;100561.84;;;22.32;51.56
63115;BME280;49208;50.874;6.466;2022-08-20T17:43:32;100557.94;;;22.25;51.98
63115;BME280;49208;50.874;6.466;2022-08-20T17:46:01;100561.97;;;22.19;52.26
63115;BME280;49208;50.874;6.466;2022-08-20T17:48:46;100561.97;;;22.19;51.39
63115;BME280;49208;50.874;6.466;2022-08-20T17:51:37;100568.78;;;22.25;50.75
63115;BME280;49208;50.874;6.466;2022-08-20T17:54:11;100573.47;;;22.23;51.08
63115;BME280;49208;50.874;6.466;2022-08-20T17:56:41;100571.13;;;22.18;50.52
63115;BME280;49208;50.874;6.466;2022-08-20T17:59:16;100566.19;;;22.12;51.65
63115;BME280;49208;50.874;6.466;2022-08-20T18:01:42;100579.13;;;22.09;51.34
63115;BME280;49208;50.874;6.466;2022-08-20T18:04:08;100579.63;;;22.03;51.51
63115;BME280;49208;50.874;6.466;2022-08-20T18:09:35;100585.44;;;21.87;52.70
63115;BME280;49208;50.874;6.466;2022-08-20T18:12:09;100589.63;;;21.79;52.78
63115;BME280;49208;50.874;6.466;2022-08-20T18:15:16;100583.22;;;21.69;53.29
63115;BME280;49208;50.874;6.466;2022-08-20T18:20:28;100584.81;;;21.49;54.61
63115;BME280;49208;50.874;6.466;2022-08-20T18:23:08;100591.03;;;21.38;54.78
63115;BME280;49208;50.874;6.466;2022-08-20T18:25:46;100592.84;;;21.27;55.29
63115;BME280;49208;50.874;6.466;2022-08-20T18:28:17;100591.00;;;21.16;55.65
63115;BME280;49208;50.874;6.466;2022-08-20T18:30:57;100591.34;;;21.00;56.19
63115;BME280;49208;50.874;6.466;2022-08-20T18:33:40;100590.31;;;20.90;56.50